sensor_id;sensor_type;location;lat;lon;timestamp;temperature;humidity
15355;DHT22;7777;52.254;9.618;2023-05-29T00:01:14;15.90;90.60
15355;DHT22;7777;52.254;9.618;2023-05-29T00:03:44;15.80;90.40
15355;DHT22;7777;52.254;9.618;2023-05-29T00:06:10;15.80;90.60
15355;DHT22;7777;52.254;9.618;2023-05-29T00:08:36;15.80;90.50
15355;DHT22;7777;52.254;9.618;2023-05-29T00:11:02;15.70;90.40
15355;DHT22;7777;52.254;9.618;2023-05-29T00:13:27;15.70;90.50
15355;DHT22;7777;52.254;9.618;2023-05-29T00:15:53;15.60;90.50
15355;DHT22;7777;52.254;9.618;2023-05-29T00:18:19;15.60;90.50
15355;DHT22;7777;52.254;9.618;2023-05-29T00:20:45;15.60;90.60
15355;DHT22;7777;52.254;9.618;2023-05-29T00:23:11;15.50;90.50
15355;DHT22;7777;52.254;9.618;2023-05-29T00:25:36;15.50;90.50
15355;DHT22;7777;52.254;9.618;2023-05-29T00:28:02;15.40;90.70
15355;DHT22;7777;52.254;9.618;2023-05-29T00:30:28;15.40;90.60
15355;DHT22;7777;52.254;9.618;2023-05-29T00:32:54;15.30;90.80
15355;DHT22;7777;52.254;9.618;2023-05-29T00:35:19;15.30;90.60
15355;DHT22;7777;52.254;9.618;2023-05-29T00:37:47;15.20;90.60
15355;DHT22;7777;52.254;9.618;2023-05-29T00:40:13;15.30;90.50
15355;DHT22;7777;52.254;9.618;2023-05-29T00:42:39;15.20;90.70
15355;DHT22;7777;52.254;9.618;2023-05-29T00:45:05;15.10;90.60
15355;DHT22;7777;52.254;9.618;2023-05-29T00:47:31;15.10;90.60
15355;DHT22;7777;52.254;9.618;2023-05-29T00:49:57;15.10;90.70
15355;DHT22;7777;52.254;9.618;2023-05-29T00:52:24;15.00;90.50
15355;DHT22;7777;52.254;9.618;2023-05-29T00:54:51;15.00;90.70
15355;DHT22;7777;52.254;9.618;2023-05-29T00:57:17;15.00;90.90
15355;DHT22;7777;52.254;9.618;2023-05-29T00:59:44;14.90;90.60
15355;DHT22;7777;52.254;9.618;2023-05-29T01:02:12;14.90;90.80
15355;DHT22;7777;52.254;9.618;2023-05-29T01:04:38;14.80;90.60
15355;DHT22;7777;52.254;9.618;2023-05-29T01:07:04;14.80;90.50
15355;DHT22;7777;52.254;9.618;2023-05-29T01:09:31;14.80;90.50
15355;DHT22;7777;52.254;9.618;2023-05-29T01:20:38;14.60;90.50
15355;DHT22;7777;52.254;9.618;2023-05-29T01:29:20;14.40;90.40
15355;DHT22;7777;52.254;9.618;2023-05-29T01:31:49;14.30;90.30
15355;DHT22;7777;52.254;9.618;2023-05-29T01:34:16;14.30;90.50
15355;DHT22;7777;52.254;9.618;2023-05-29T01:36:41;14.30;90.40
15355;DHT22;7777;52.254;9.618;2023-05-29T01:39:08;14.20;90.30
15355;DHT22;7777;52.254;9.618;2023-05-29T01:41:35;14.20;90.40
15355;DHT22;7777;52.254;9.618;2023-05-29T01:44:04;14.10;90.50
15355;DHT22;7777;52.254;9.618;2023-05-29T01:46:34;14.10;90.30
15355;DHT22;7777;52.254;9.618;2023-05-29T01:49:04;14.00;90.30
15355;DHT22;7777;52.254;9.618;2023-05-29T01:51:30;14.00;90.20
15355;DHT22;7777;52.254;9.618;2023-05-29T01:53:57;13.90;90.30
15355;DHT22;7777;52.254;9.618;2023-05-29T01:56:26;13.90;90.50
15355;DHT22;7777;52.254;9.618;2023-05-29T01:58:56;13.90;90.30
15355;DHT22;7777;52.254;9.618;2023-05-29T02:01:23;13.80;90.30
15355;DHT22;7777;52.254;9.618;2023-05-29T02:03:51;13.80;90.20
15355;DHT22;7777;52.254;9.618;2023-05-29T02:06:17;13.70;90.10
15355;DHT22;7777;52.254;9.618;2023-05-29T02:08:43;13.70;90.10
15355;DHT22;7777;52.254;9.618;2023-05-29T02:11:09;13.70;90.10
15355;DHT22;7777;52.254;9.618;2023-05-29T02:13:35;13.60;90.10
15355;DHT22;7777;52.254;9.618;2023-05-29T02:16:01;13.60;90.00
15355;DHT22;7777;52.254;9.618;2023-05-29T02:18:26;13.60;90.10
15355;DHT22;7777;52.254;9.618;2023-05-29T02:20:54;13.50;90.00
15355;DHT22;7777;52.254;9.618;2023-05-29T02:23:22;13.50;90.10
15355;DHT22;7777;52.254;9.618;2023-05-29T02:25:48;13.50;90.00
15355;DHT22;7777;52.254;9.618;2023-05-29T02:28:17;13.40;90.30
15355;DHT22;7777;52.254;9.618;2023-05-29T02:30:43;13.40;89.90
15355;DHT22;7777;52.254;9.618;2023-05-29T02:33:09;13.40;90.10
15355;DHT22;7777;52.254;9.618;2023-05-29T02:35:34;13.30;89.90
15355;DHT22;7777;52.254;9.618;2023-05-29T02:38:00;13.30;90.10
15355;DHT22;7777;52.254;9.618;2023-05-29T02:40:26;13.30;90.00
15355;DHT22;7777;52.254;9.618;2023-05-29T02:42:51;13.20;90.00
15355;DHT22;7777;52.254;9.618;2023-05-29T02:45:17;13.20;89.80
15355;DHT22;7777;52.254;9.618;2023-05-29T02:47:43;13.10;89.80
15355;DHT22;7777;52.254;9.618;2023-05-29T02:50:09;13.10;90.00
15355;DHT22;7777;52.254;9.618;2023-05-29T02:52:35;13.10;89.80
15355;DHT22;7777;52.254;9.618;2023-05-29T02:55:05;13.00;89.90
15355;DHT22;7777;52.254;9.618;2023-05-29T02:57:31;13.00;89.70
15355;DHT22;7777;52.254;9.618;2023-05-29T02:59:57;13.00;89.70
15355;DHT22;7777;52.254;9.618;2023-05-29T03:02:23;12.90;89.60
15355;DHT22;7777;52.254;9.618;2023-05-29T03:04:49;12.90;89.80
15355;DHT22;7777;52.254;9.618;2023-05-29T03:07:16;12.90;90.00
15355;DHT22;7777;52.254;9.618;2023-05-29T03:09:42;12.80;90.00
15355;DHT22;7777;52.254;9.618;2023-05-29T03:12:08;12.80;90.00
15355;DHT22;7777;52.254;9.618;2023-05-29T03:14:33;12.80;89.70
15355;DHT22;7777;52.254;9.618;2023-05-29T03:17:03;12.80;89.60
15355;DHT22;7777;52.254;9.618;2023-05-29T03:19:29;12.70;89.80
15355;DHT22;7777;52.254;9.618;2023-05-29T03:21:55;12.70;89.80
15355;DHT22;7777;52.254;9.618;2023-05-29T03:24:20;12.60;89.90
15355;DHT22;7777;52.254;9.618;2023-05-29T03:26:46;12.60;89.60
15355;DHT22;7777;52.254;9.618;2023-05-29T03:29:12;12.60;89.60
15355;DHT22;7777;52.254;9.618;2023-05-29T03:31:38;12.60;89.80
15355;DHT22;7777;52.254;9.618;2023-05-29T03:34:03;12.50;89.80
15355;DHT22;7777;52.254;9.618;2023-05-29T03:36:29;12.50;89.30
15355;DHT22;7777;52.254;9.618;2023-05-29T03:38:57;12.50;89.40
15355;DHT22;7777;52.254;9.618;2023-05-29T03:41:24;12.50;89.70
15355;DHT22;7777;52.254;9.618;2023-05-29T03:43:50;12.50;89.80
15355;DHT22;7777;52.254;9.618;2023-05-29T03:46:16;12.50;89.40
15355;DHT22;7777;52.254;9.618;2023-05-29T03:48:42;12.40;89.50
15355;DHT22;7777;52.254;9.618;2023-05-29T03:51:08;12.40;89.80
15355;DHT22;7777;52.254;9.618;2023-05-29T03:53:33;12.40;89.70
15355;DHT22;7777;52.254;9.618;2023-05-29T03:55:59;12.40;89.60
15355;DHT22;7777;52.254;9.618;2023-05-29T03:58:25;12.40;90.00
15355;DHT22;7777;52.254;9.618;2023-05-29T04:00:51;12.40;90.10
15355;DHT22;7777;52.254;9.618;2023-05-29T04:03:17;12.40;90.00
15355;DHT22;7777;52.254;9.618;2023-05-29T04:05:42;12.40;89.70
15355;DHT22;7777;52.254;9.618;2023-05-29T04:08:08;12.40;89.80
15355;DHT22;7777;52.254;9.618;2023-05-29T04:10:36;12.40;90.00
15355;DHT22;7777;52.254;9.618;2023-05-29T04:13:02;12.40;90.00
15355;DHT22;7777;52.254;9.618;2023-05-29T04:15:28;12.40;89.80
15355;DHT22;7777;52.254;9.618;2023-05-29T04:17:54;12.40;90.10
15355;DHT22;7777;52.254;9.618;2023-05-29T04:20:20;12.40;90.00
15355;DHT22;7777;52.254;9.618;2023-05-29T04:22:46;12.40;90.00
15355;DHT22;7777;52.254;9.618;2023-05-29T04:25:12;12.40;90.20
15355;DHT22;7777;52.254;9.618;2023-05-29T04:27:38;12.50;90.00
15355;DHT22;7777;52.254;9.618;2023-05-29T04:30:07;12.50;90.10
15355;DHT22;7777;52.254;9.618;2023-05-29T04:32:34;12.50;90.10
15355;DHT22;7777;52.254;9.618;2023-05-29T04:35:01;12.50;90.20
15355;DHT22;7777;52.254;9.618;2023-05-29T04:37:31;12.60;90.20
15355;DHT22;7777;52.254;9.618;2023-05-29T04:40:03;12.60;90.60
15355;DHT22;7777;52.254;9.618;2023-05-29T04:42:35;12.60;90.40
15355;DHT22;7777;52.254;9.618;2023-05-29T04:45:02;12.60;90.30
15355;DHT22;7777;52.254;9.618;2023-05-29T04:47:31;12.70;90.60
15355;DHT22;7777;52.254;9.618;2023-05-29T04:49:59;12.70;90.50
15355;DHT22;7777;52.254;9.618;2023-05-29T04:52:26;12.70;90.40
15355;DHT22;7777;52.254;9.618;2023-05-29T04:54:52;12.70;90.60
15355;DHT22;7777;52.254;9.618;2023-05-29T04:57:19;12.80;90.60
15355;DHT22;7777;52.254;9.618;2023-05-29T04:59:44;12.80;90.50
15355;DHT22;7777;52.254;9.618;2023-05-29T05:02:10;12.80;90.50
15355;DHT22;7777;52.254;9.618;2023-05-29T05:04:36;12.80;90.60
15355;DHT22;7777;52.254;9.618;2023-05-29T05:07:02;12.90;90.60
15355;DHT22;7777;52.254;9.618;2023-05-29T05:09:28;12.80;90.60
15355;DHT22;7777;52.254;9.618;2023-05-29T05:11:54;12.90;90.70
15355;DHT22;7777;52.254;9.618;2023-05-29T05:14:20;12.90;90.60
15355;DHT22;7777;52.254;9.618;2023-05-29T05:16:53;12.90;90.80
15355;DHT22;7777;52.254;9.618;2023-05-29T05:19:20;12.90;90.70
15355;DHT22;7777;52.254;9.618;2023-05-29T05:21:46;12.90;90.50
15355;DHT22;7777;52.254;9.618;2023-05-29T05:24:12;13.00;90.70
15355;DHT22;7777;52.254;9.618;2023-05-29T05:26:38;13.00;90.70
15355;DHT22;7777;52.254;9.618;2023-05-29T05:29:06;13.00;91.00
15355;DHT22;7777;52.254;9.618;2023-05-29T05:31:33;13.00;90.80
15355;DHT22;7777;52.254;9.618;2023-05-29T05:33:58;13.00;90.90
15355;DHT22;7777;52.254;9.618;2023-05-29T05:36:24;13.10;90.80
15355;DHT22;7777;52.254;9.618;2023-05-29T05:38:50;13.10;90.90
15355;DHT22;7777;52.254;9.618;2023-05-29T05:41:16;13.10;91.10
15355;DHT22;7777;52.254;9.618;2023-05-29T05:43:44;13.10;91.00
15355;DHT22;7777;52.254;9.618;2023-05-29T05:46:10;13.20;90.90
15355;DHT22;7777;52.254;9.618;2023-05-29T05:48:39;13.20;91.00
15355;DHT22;7777;52.254;9.618;2023-05-29T05:51:05;13.20;90.90
15355;DHT22;7777;52.254;9.618;2023-05-29T05:53:31;13.20;90.90
15355;DHT22;7777;52.254;9.618;2023-05-29T05:55:57;13.30;91.00
15355;DHT22;7777;52.254;9.618;2023-05-29T05:58:22;13.30;91.10
15355;DHT22;7777;52.254;9.618;2023-05-29T06:00:48;13.30;91.00
15355;DHT22;7777;52.254;9.618;2023-05-29T06:03:24;13.40;91.70
15355;DHT22;7777;52.254;9.618;2023-05-29T06:05:50;13.40;91.30
15355;DHT22;7777;52.254;9.618;2023-05-29T06:08:17;13.40;91.10
15355;DHT22;7777;52.254;9.618;2023-05-29T06:10:43;13.40;91.00
15355;DHT22;7777;52.254;9.618;2023-05-29T06:13:09;13.50;91.30
15355;DHT22;7777;52.254;9.618;2023-05-29T06:15:34;13.50;91.50
15355;DHT22;7777;52.254;9.618;2023-05-29T06:18:01;13.50;91.50
15355;DHT22;7777;52.254;9.618;2023-05-29T06:20:26;13.50;91.40
15355;DHT22;7777;52.254;9.618;2023-05-29T06:22:52;13.50;91.10
15355;DHT22;7777;52.254;9.618;2023-05-29T06:25:19;13.60;91.10
15355;DHT22;7777;52.254;9.618;2023-05-29T06:27:48;13.60;91.20
15355;DHT22;7777;52.254;9.618;2023-05-29T06:30:14;13.60;91.10
15355;DHT22;7777;52.254;9.618;2023-05-29T06:32:40;13.60;91.30
15355;DHT22;7777;52.254;9.618;2023-05-29T06:35:06;13.60;91.30
15355;DHT22;7777;52.254;9.618;2023-05-29T06:37:32;13.70;91.40
15355;DHT22;7777;52.254;9.618;2023-05-29T06:39:58;13.70;91.60
15355;DHT22;7777;52.254;9.618;2023-05-29T06:42:24;13.70;91.40
15355;DHT22;7777;52.254;9.618;2023-05-29T06:44:50;13.80;91.80
15355;DHT22;7777;52.254;9.618;2023-05-29T06:47:16;13.80;91.60
15355;DHT22;7777;52.254;9.618;2023-05-29T06:49:41;13.90;91.80
15355;DHT22;7777;52.254;9.618;2023-05-29T06:52:07;13.90;91.90
15355;DHT22;7777;52.254;9.618;2023-05-29T06:54:33;13.90;91.90
15355;DHT22;7777;52.254;9.618;2023-05-29T06:56:58;14.00;92.10
15355;DHT22;7777;52.254;9.618;2023-05-29T06:59:24;14.00;92.10
15355;DHT22;7777;52.254;9.618;2023-05-29T07:01:50;14.10;92.20
15355;DHT22;7777;52.254;9.618;2023-05-29T07:04:16;14.20;92.10
15355;DHT22;7777;52.254;9.618;2023-05-29T07:06:41;14.20;92.00
15355;DHT22;7777;52.254;9.618;2023-05-29T07:09:07;14.30;92.20
15355;DHT22;7777;52.254;9.618;2023-05-29T07:11:34;14.30;92.10
15355;DHT22;7777;52.254;9.618;2023-05-29T07:13:59;14.40;92.10
15355;DHT22;7777;52.254;9.618;2023-05-29T07:16:25;14.50;92.10
15355;DHT22;7777;52.254;9.618;2023-05-29T07:18:51;14.60;92.20
15355;DHT22;7777;52.254;9.618;2023-05-29T07:21:17;14.70;92.40
15355;DHT22;7777;52.254;9.618;2023-05-29T07:23:43;14.70;92.50
15355;DHT22;7777;52.254;9.618;2023-05-29T07:26:09;14.80;92.50
15355;DHT22;7777;52.254;9.618;2023-05-29T07:28:35;14.90;92.60
15355;DHT22;7777;52.254;9.618;2023-05-29T07:31:01;14.90;92.50
15355;DHT22;7777;52.254;9.618;2023-05-29T07:33:26;15.00;92.50
15355;DHT22;7777;52.254;9.618;2023-05-29T07:35:52;15.00;92.40
15355;DHT22;7777;52.254;9.618;2023-05-29T07:38:25;15.10;92.50
15355;DHT22;7777;52.254;9.618;2023-05-29T07:40:50;15.10;92.50
15355;DHT22;7777;52.254;9.618;2023-05-29T07:43:16;15.20;92.60
15355;DHT22;7777;52.254;9.618;2023-05-29T07:45:42;15.30;92.50
15355;DHT22;7777;52.254;9.618;2023-05-29T07:48:08;15.30;92.60
15355;DHT22;7777;52.254;9.618;2023-05-29T07:50:34;15.30;92.50
15355;DHT22;7777;52.254;9.618;2023-05-29T07:53:00;15.40;92.60
15355;DHT22;7777;52.254;9.618;2023-05-29T07:55:26;15.50;92.50
15355;DHT22;7777;52.254;9.618;2023-05-29T07:57:51;15.50;92.60
15355;DHT22;7777;52.254;9.618;2023-05-29T08:00:18;15.60;92.60
15355;DHT22;7777;52.254;9.618;2023-05-29T08:02:44;15.60;92.50
15355;DHT22;7777;52.254;9.618;2023-05-29T08:05:10;15.70;92.50
15355;DHT22;7777;52.254;9.618;2023-05-29T08:07:38;15.80;92.70
15355;DHT22;7777;52.254;9.618;2023-05-29T08:10:04;15.80;92.60
15355;DHT22;7777;52.254;9.618;2023-05-29T08:12:31;15.90;92.60
15355;DHT22;7777;52.254;9.618;2023-05-29T08:14:56;15.90;92.50
15355;DHT22;7777;52.254;9.618;2023-05-29T08:17:22;16.00;92.60
15355;DHT22;7777;52.254;9.618;2023-05-29T08:19:48;16.00;92.60
15355;DHT22;7777;52.254;9.618;2023-05-29T08:22:14;16.00;92.50
15355;DHT22;7777;52.254;9.618;2023-05-29T08:24:40;16.10;92.60
15355;DHT22;7777;52.254;9.618;2023-05-29T08:27:06;16.20;92.60
15355;DHT22;7777;52.254;9.618;2023-05-29T08:29:32;16.30;92.70
15355;DHT22;7777;52.254;9.618;2023-05-29T08:31:58;16.30;92.70
15355;DHT22;7777;52.254;9.618;2023-05-29T08:34:23;16.40;92.70
15355;DHT22;7777;52.254;9.618;2023-05-29T08:36:49;16.50;92.70
15355;DHT22;7777;52.254;9.618;2023-05-29T08:39:17;16.50;92.40
15355;DHT22;7777;52.254;9.618;2023-05-29T08:44:30;16.60;92.40
15355;DHT22;7777;52.254;9.618;2023-05-29T08:47:00;16.70;92.50
15355;DHT22;7777;52.254;9.618;2023-05-29T08:49:41;16.80;92.50
15355;DHT22;7777;52.254;9.618;2023-05-29T08:52:18;16.80;92.70
15355;DHT22;7777;52.254;9.618;2023-05-29T08:54:50;16.90;92.60
15355;DHT22;7777;52.254;9.618;2023-05-29T08:57:17;17.00;92.60
15355;DHT22;7777;52.254;9.618;2023-05-29T08:59:44;17.10;92.60
15355;DHT22;7777;52.254;9.618;2023-05-29T09:02:11;17.10;92.60
15355;DHT22;7777;52.254;9.618;2023-05-29T09:04:42;17.20;92.70
15355;DHT22;7777;52.254;9.618;2023-05-29T09:07:14;17.30;92.60
15355;DHT22;7777;52.254;9.618;2023-05-29T09:09:40;17.30;92.50
15355;DHT22;7777;52.254;9.618;2023-05-29T09:12:08;17.40;92.30
15355;DHT22;7777;52.254;9.618;2023-05-29T09:14:38;17.50;92.40
15355;DHT22;7777;52.254;9.618;2023-05-29T09:17:06;17.50;92.40
15355;DHT22;7777;52.254;9.618;2023-05-29T09:19:34;17.60;92.50
15355;DHT22;7777;52.254;9.618;2023-05-29T09:22:10;17.70;92.70
15355;DHT22;7777;52.254;9.618;2023-05-29T09:24:40;17.70;92.50
15355;DHT22;7777;52.254;9.618;2023-05-29T09:27:08;17.80;92.40
15355;DHT22;7777;52.254;9.618;2023-05-29T09:29:42;17.90;92.50
15355;DHT22;7777;52.254;9.618;2023-05-29T09:32:18;18.00;92.40
15355;DHT22;7777;52.254;9.618;2023-05-29T09:34:44;18.00;92.50
15355;DHT22;7777;52.254;9.618;2023-05-29T09:37:11;18.10;92.60
15355;DHT22;7777;52.254;9.618;2023-05-29T09:39:50;18.20;92.30
15355;DHT22;7777;52.254;9.618;2023-05-29T09:42:19;18.30;92.40
15355;DHT22;7777;52.254;9.618;2023-05-29T09:44:50;18.40;92.40
15355;DHT22;7777;52.254;9.618;2023-05-29T09:47:19;18.40;92.60
15355;DHT22;7777;52.254;9.618;2023-05-29T09:49:45;18.50;92.60
15355;DHT22;7777;52.254;9.618;2023-05-29T09:52:12;18.60;92.50
15355;DHT22;7777;52.254;9.618;2023-05-29T09:54:43;18.70;92.30
15355;DHT22;7777;52.254;9.618;2023-05-29T09:57:16;18.80;92.70
15355;DHT22;7777;52.254;9.618;2023-05-29T09:59:46;18.90;93.00
15355;DHT22;7777;52.254;9.618;2023-05-29T10:02:17;19.00;92.60
15355;DHT22;7777;52.254;9.618;2023-05-29T10:04:43;19.10;92.30
15355;DHT22;7777;52.254;9.618;2023-05-29T10:07:29;19.20;92.30
15355;DHT22;7777;52.254;9.618;2023-05-29T10:10:03;19.30;92.80
15355;DHT22;7777;52.254;9.618;2023-05-29T10:12:32;19.30;92.60
15355;DHT22;7777;52.254;9.618;2023-05-29T10:15:01;19.40;92.50
15355;DHT22;7777;52.254;9.618;2023-05-29T10:17:33;19.50;92.30
15355;DHT22;7777;52.254;9.618;2023-05-29T10:20:02;19.60;92.50
15355;DHT22;7777;52.254;9.618;2023-05-29T10:22:32;19.70;92.50
15355;DHT22;7777;52.254;9.618;2023-05-29T10:24:58;19.80;92.20
15355;DHT22;7777;52.254;9.618;2023-05-29T10:27:24;19.80;92.20
15355;DHT22;7777;52.254;9.618;2023-05-29T10:29:58;19.90;91.90
15355;DHT22;7777;52.254;9.618;2023-05-29T10:32:32;20.00;92.60
15355;DHT22;7777;52.254;9.618;2023-05-29T10:37:41;20.20;92.50
15355;DHT22;7777;52.254;9.618;2023-05-29T10:40:11;20.30;92.80
15355;DHT22;7777;52.254;9.618;2023-05-29T10:42:44;20.30;92.40
15355;DHT22;7777;52.254;9.618;2023-05-29T10:50:38;20.60;92.40
15355;DHT22;7777;52.254;9.618;2023-05-29T10:53:09;20.70;92.70
15355;DHT22;7777;52.254;9.618;2023-05-29T10:55:40;20.80;92.00
15355;DHT22;7777;52.254;9.618;2023-05-29T10:58:07;20.90;92.30
15355;DHT22;7777;52.254;9.618;2023-05-29T11:00:34;20.90;92.20
15355;DHT22;7777;52.254;9.618;2023-05-29T11:03:07;21.00;92.50
15355;DHT22;7777;52.254;9.618;2023-05-29T11:05:34;21.10;92.20
15355;DHT22;7777;52.254;9.618;2023-05-29T11:08:01;21.20;92.30
15355;DHT22;7777;52.254;9.618;2023-05-29T11:10:43;21.30;91.90
15355;DHT22;7777;52.254;9.618;2023-05-29T11:13:26;21.30;92.30
15355;DHT22;7777;52.254;9.618;2023-05-29T11:16:39;21.40;91.50
15355;DHT22;7777;52.254;9.618;2023-05-29T11:19:06;21.50;92.00
15355;DHT22;7777;52.254;9.618;2023-05-29T11:21:52;21.50;91.80
15355;DHT22;7777;52.254;9.618;2023-05-29T11:24:24;21.60;91.40
15355;DHT22;7777;52.254;9.618;2023-05-29T11:26:53;21.70;91.50
15355;DHT22;7777;52.254;9.618;2023-05-29T11:29:38;21.70;91.80
15355;DHT22;7777;52.254;9.618;2023-05-29T11:32:05;21.80;92.00
15355;DHT22;7777;52.254;9.618;2023-05-29T11:34:40;21.90;91.90
15355;DHT22;7777;52.254;9.618;2023-05-29T11:37:06;22.00;92.10
15355;DHT22;7777;52.254;9.618;2023-05-29T11:39:36;22.00;91.80
15355;DHT22;7777;52.254;9.618;2023-05-29T11:42:03;22.10;92.20
15355;DHT22;7777;52.254;9.618;2023-05-29T11:44:29;22.20;92.20
15355;DHT22;7777;52.254;9.618;2023-05-29T11:47:04;22.20;91.90
15355;DHT22;7777;52.254;9.618;2023-05-29T11:49:33;22.30;91.50
15355;DHT22;7777;52.254;9.618;2023-05-29T11:52:11;22.30;92.10
15355;DHT22;7777;52.254;9.618;2023-05-29T11:54:39;22.40;91.90
15355;DHT22;7777;52.254;9.618;2023-05-29T11:57:17;22.50;92.00
15355;DHT22;7777;52.254;9.618;2023-05-29T11:59:49;22.50;91.70
15355;DHT22;7777;52.254;9.618;2023-05-29T12:02:19;22.60;92.10
15355;DHT22;7777;52.254;9.618;2023-05-29T12:05:03;22.70;92.00
15355;DHT22;7777;52.254;9.618;2023-05-29T12:07:30;22.80;91.80
15355;DHT22;7777;52.254;9.618;2023-05-29T12:09:55;22.80;92.20
15355;DHT22;7777;52.254;9.618;2023-05-29T12:12:23;22.90;91.60
15355;DHT22;7777;52.254;9.618;2023-05-29T12:14:52;22.90;91.50
15355;DHT22;7777;52.254;9.618;2023-05-29T12:17:19;23.00;91.50
15355;DHT22;7777;52.254;9.618;2023-05-29T12:19:46;23.00;92.00
15355;DHT22;7777;52.254;9.618;2023-05-29T12:22:12;23.10;92.30
15355;DHT22;7777;52.254;9.618;2023-05-29T12:24:37;23.20;92.00
15355;DHT22;7777;52.254;9.618;2023-05-29T12:27:04;23.20;92.00
15355;DHT22;7777;52.254;9.618;2023-05-29T12:29:36;23.30;91.90
15355;DHT22;7777;52.254;9.618;2023-05-29T12:32:01;23.40;91.80
15355;DHT22;7777;52.254;9.618;2023-05-29T12:34:34;23.40;91.00
15355;DHT22;7777;52.254;9.618;2023-05-29T12:37:09;23.40;90.80
15355;DHT22;7777;52.254;9.618;2023-05-29T12:39:39;23.50;91.50
15355;DHT22;7777;52.254;9.618;2023-05-29T12:42:08;23.60;91.30
15355;DHT22;7777;52.254;9.618;2023-05-29T12:44:41;23.50;90.80
15355;DHT22;7777;52.254;9.618;2023-05-29T12:47:07;23.60;91.40
15355;DHT22;7777;52.254;9.618;2023-05-29T12:49:36;23.70;91.50
15355;DHT22;7777;52.254;9.618;2023-05-29T12:52:06;23.70;91.20
15355;DHT22;7777;52.254;9.618;2023-05-29T12:54:33;23.80;91.00
15355;DHT22;7777;52.254;9.618;2023-05-29T12:56:58;23.80;90.80
15355;DHT22;7777;52.254;9.618;2023-05-29T12:59:26;23.80;90.70
15355;DHT22;7777;52.254;9.618;2023-05-29T13:01:52;23.80;90.20
15355;DHT22;7777;52.254;9.618;2023-05-29T13:04:17;23.90;90.70
15355;DHT22;7777;52.254;9.618;2023-05-29T13:06:43;23.90;90.80
15355;DHT22;7777;52.254;9.618;2023-05-29T13:09:09;23.90;90.50
15355;DHT22;7777;52.254;9.618;2023-05-29T13:11:36;23.90;90.40
15355;DHT22;7777;52.254;9.618;2023-05-29T13:14:02;24.00;91.00
15355;DHT22;7777;52.254;9.618;2023-05-29T13:16:27;24.10;91.00
15355;DHT22;7777;52.254;9.618;2023-05-29T13:18:53;24.10;90.60
15355;DHT22;7777;52.254;9.618;2023-05-29T13:21:19;24.10;90.00
15355;DHT22;7777;52.254;9.618;2023-05-29T13:23:44;24.10;90.50
15355;DHT22;7777;52.254;9.618;2023-05-29T13:26:10;24.10;90.50
15355;DHT22;7777;52.254;9.618;2023-05-29T13:28:36;24.10;90.60
15355;DHT22;7777;52.254;9.618;2023-05-29T13:31:02;24.10;90.40
15355;DHT22;7777;52.254;9.618;2023-05-29T13:33:27;24.10;89.50
15355;DHT22;7777;52.254;9.618;2023-05-29T13:35:53;24.10;89.40
15355;DHT22;7777;52.254;9.618;2023-05-29T13:38:19;24.00;88.70
15355;DHT22;7777;52.254;9.618;2023-05-29T13:40:45;24.00;90.30
15355;DHT22;7777;52.254;9.618;2023-05-29T13:43:11;24.00;90.10
15355;DHT22;7777;52.254;9.618;2023-05-29T13:45:36;24.00;88.50
15355;DHT22;7777;52.254;9.618;2023-05-29T13:48:03;24.00;88.70
15355;DHT22;7777;52.254;9.618;2023-05-29T13:50:29;23.90;89.10
15355;DHT22;7777;52.254;9.618;2023-05-29T13:52:55;23.90;88.30
15355;DHT22;7777;52.254;9.618;2023-05-29T13:55:20;23.90;88.10
15355;DHT22;7777;52.254;9.618;2023-05-29T13:57:46;23.80;87.90
15355;DHT22;7777;52.254;9.618;2023-05-29T14:00:12;23.80;89.00
15355;DHT22;7777;52.254;9.618;2023-05-29T14:02:38;23.80;88.00
15355;DHT22;7777;52.254;9.618;2023-05-29T14:05:05;23.80;88.00
15355;DHT22;7777;52.254;9.618;2023-05-29T14:07:31;23.70;87.10
15355;DHT22;7777;52.254;9.618;2023-05-29T14:09:57;23.70;87.70
15355;DHT22;7777;52.254;9.618;2023-05-29T14:12:23;23.70;87.00
15355;DHT22;7777;52.254;9.618;2023-05-29T14:14:48;23.60;86.00
15355;DHT22;7777;52.254;9.618;2023-05-29T14:17:14;23.60;86.00
15355;DHT22;7777;52.254;9.618;2023-05-29T14:19:40;23.50;86.50
15355;DHT22;7777;52.254;9.618;2023-05-29T14:22:06;23.40;85.40
15355;DHT22;7777;52.254;9.618;2023-05-29T14:24:32;23.40;84.60
15355;DHT22;7777;52.254;9.618;2023-05-29T14:26:58;23.30;84.40
15355;DHT22;7777;52.254;9.618;2023-05-29T14:29:24;23.20;85.00
15355;DHT22;7777;52.254;9.618;2023-05-29T14:31:51;23.20;84.90
15355;DHT22;7777;52.254;9.618;2023-05-29T14:34:17;23.10;85.10
15355;DHT22;7777;52.254;9.618;2023-05-29T14:36:43;23.00;82.30
15355;DHT22;7777;52.254;9.618;2023-05-29T14:39:10;22.90;82.70
15355;DHT22;7777;52.254;9.618;2023-05-29T14:41:37;22.90;83.30
15355;DHT22;7777;52.254;9.618;2023-05-29T14:44:03;22.90;81.90
15355;DHT22;7777;52.254;9.618;2023-05-29T14:46:29;22.80;82.30
15355;DHT22;7777;52.254;9.618;2023-05-29T14:49:01;22.70;84.00
15355;DHT22;7777;52.254;9.618;2023-05-29T14:51:27;22.70;84.10
15355;DHT22;7777;52.254;9.618;2023-05-29T14:53:53;22.70;84.00
15355;DHT22;7777;52.254;9.618;2023-05-29T14:56:19;22.60;83.80
15355;DHT22;7777;52.254;9.618;2023-05-29T14:58:46;22.50;82.70
15355;DHT22;7777;52.254;9.618;2023-05-29T15:01:14;22.50;83.50
15355;DHT22;7777;52.254;9.618;2023-05-29T15:03:40;22.40;83.70
15355;DHT22;7777;52.254;9.618;2023-05-29T15:06:06;22.40;83.50
15355;DHT22;7777;52.254;9.618;2023-05-29T15:08:34;22.40;83.40
15355;DHT22;7777;52.254;9.618;2023-05-29T15:11:03;22.30;83.10
15355;DHT22;7777;52.254;9.618;2023-05-29T15:13:29;22.30;82.00
15355;DHT22;7777;52.254;9.618;2023-05-29T15:15:56;22.20;81.20
15355;DHT22;7777;52.254;9.618;2023-05-29T15:18:25;22.20;83.10
15355;DHT22;7777;52.254;9.618;2023-05-29T15:20:52;22.20;82.00
15355;DHT22;7777;52.254;9.618;2023-05-29T15:23:18;22.10;81.60
15355;DHT22;7777;52.254;9.618;2023-05-29T15:25:47;22.10;81.90
15355;DHT22;7777;52.254;9.618;2023-05-29T15:28:13;22.10;82.20
15355;DHT22;7777;52.254;9.618;2023-05-29T15:30:38;22.00;82.40
15355;DHT22;7777;52.254;9.618;2023-05-29T15:33:04;22.00;81.70
15355;DHT22;7777;52.254;9.618;2023-05-29T15:35:33;22.00;81.90
15355;DHT22;7777;52.254;9.618;2023-05-29T15:37:59;22.00;82.70
15355;DHT22;7777;52.254;9.618;2023-05-29T15:40:25;21.90;81.40
15355;DHT22;7777;52.254;9.618;2023-05-29T15:42:51;21.90;82.40
15355;DHT22;7777;52.254;9.618;2023-05-29T15:45:17;21.80;80.40
15355;DHT22;7777;52.254;9.618;2023-05-29T15:47:42;21.80;81.40
15355;DHT22;7777;52.254;9.618;2023-05-29T15:50:08;21.80;81.60
15355;DHT22;7777;52.254;9.618;2023-05-29T15:52:34;21.70;81.40
15355;DHT22;7777;52.254;9.618;2023-05-29T15:55:00;21.70;81.10
15355;DHT22;7777;52.254;9.618;2023-05-29T15:57:26;21.70;80.80
15355;DHT22;7777;52.254;9.618;2023-05-29T15:59:51;21.70;80.90
15355;DHT22;7777;52.254;9.618;2023-05-29T16:02:17;21.60;81.30
15355;DHT22;7777;52.254;9.618;2023-05-29T16:04:43;21.60;80.60
15355;DHT22;7777;52.254;9.618;2023-05-29T16:07:08;21.60;81.60
15355;DHT22;7777;52.254;9.618;2023-05-29T16:09:34;21.50;81.20
15355;DHT22;7777;52.254;9.618;2023-05-29T16:12:02;21.50;81.50